createdAt,value
2023-04-13T00:01:29.023Z,98585.05
2023-04-13T00:03:58.651Z,98587.16
2023-04-13T00:06:28.793Z,98589.83
2023-04-13T00:08:58.830Z,98592.73
2023-04-13T00:11:28.252Z,98597.36
2023-04-13T00:13:59.053Z,98600.71
2023-04-13T00:16:31.768Z,98604.63
2023-04-13T00:18:59.779Z,98609.85
2023-04-13T00:21:27.903Z,98610.27
2023-04-13T00:24:01.616Z,98610.61
2023-04-13T00:26:30.491Z,98611.44
2023-04-13T00:28:58.577Z,98610.84
2023-04-13T00:31:26.677Z,98612.48
2023-04-13T00:33:55.766Z,98613.13
2023-04-13T00:36:24.824Z,98616.73
2023-04-13T00:38:54.565Z,98613.61
2023-04-13T00:41:24.272Z,98609.52
2023-04-13T00:43:52.745Z,98602.33
2023-04-13T00:46:21.104Z,98598.92
2023-04-13T00:48:55.694Z,98599.81
2023-04-13T00:51:23.558Z,98607.02
2023-04-13T00:53:51.548Z,98605.80
2023-04-13T00:56:23.316Z,98597.60
2023-04-13T00:58:51.921Z,98590.86
2023-04-13T01:01:19.943Z,98590.55
2023-04-13T01:03:49.721Z,98589.16
2023-04-13T01:06:21.388Z,98581.84
2023-04-13T01:08:53.326Z,98579.08
2023-04-13T01:11:33.172Z,98582.96
2023-04-13T01:14:09.292Z,98589.65
2023-04-13T01:16:40.612Z,98583.61
2023-04-13T01:19:11.359Z,98582.86
2023-04-13T01:21:39.275Z,98586.89
2023-04-13T01:24:26.675Z,98583.43
2023-04-13T01:26:58.539Z,98584.52
2023-04-13T01:29:26.385Z,98591.31
2023-04-13T01:31:54.420Z,98595.15
2023-04-13T01:34:23.340Z,98586.14
2023-04-13T01:36:51.255Z,98582.88
2023-04-13T01:39:20.221Z,98591.60
2023-04-13T01:41:49.379Z,98596.98
2023-04-13T01:44:18.010Z,98588.30
2023-04-13T01:46:47.686Z,98583.08
2023-04-13T01:49:39.033Z,98587.20
2023-04-13T01:52:41.060Z,98582.15
2023-04-13T01:55:12.535Z,98578.61
2023-04-13T01:57:41.502Z,98574.61
2023-04-13T02:00:12.596Z,98580.52
2023-04-13T02:02:45.343Z,98580.33
2023-04-13T02:05:13.574Z,98580.77
2023-04-13T02:07:42.631Z,98588.14
2023-04-13T02:10:12.030Z,98591.05
2023-04-13T02:12:41.761Z,98588.08
2023-04-13T02:15:10.722Z,98593.10
2023-04-13T02:17:42.515Z,98590.23
2023-04-13T02:20:14.291Z,98585.98
2023-04-13T02:22:48.124Z,98590.36
2023-04-13T02:25:18.938Z,98591.98
2023-04-13T02:27:47.447Z,98594.73
2023-04-13T02:30:17.851Z,98595.98
2023-04-13T02:33:00.189Z,98596.54
2023-04-13T02:35:28.954Z,98588.96
2023-04-13T02:37:58.156Z,98582.44
2023-04-13T02:40:28.507Z,98581.21
2023-04-13T02:42:59.994Z,98580.08
2023-04-13T02:45:29.372Z,98583.02
2023-04-13T02:48:05.629Z,98587.33
2023-04-13T02:50:35.008Z,98585.27
2023-04-13T02:53:07.890Z,98592.19
2023-04-13T02:55:36.691Z,98594.77
2023-04-13T02:58:08.325Z,98599.09
2023-04-13T03:00:37.566Z,98602.54
2023-04-13T03:03:19.220Z,98603.88
2023-04-13T03:05:50.823Z,98606.52
2023-04-13T03:08:21.683Z,98606.98
2023-04-13T03:11:09.566Z,98602.81
2023-04-13T03:13:41.060Z,98591.66
2023-04-13T03:16:12.365Z,98592.10
2023-04-13T03:18:41.658Z,98598.45
2023-04-13T03:21:10.476Z,98604.53
2023-04-13T03:23:44.149Z,98607.36
2023-04-13T03:26:13.696Z,98609.83
2023-04-13T03:28:41.480Z,98618.41
2023-04-13T03:31:09.753Z,98621.34
2023-04-13T03:33:39.628Z,98623.45
2023-04-13T03:36:08.550Z,98627.61
2023-04-13T03:38:37.702Z,98621.17
2023-04-13T03:41:06.115Z,98624.14
2023-04-13T03:43:34.275Z,98625.94
2023-04-13T03:46:07.861Z,98622.73
2023-04-13T03:48:36.802Z,98624.83
2023-04-13T03:51:06.641Z,98626.52
2023-04-13T03:53:46.366Z,98624.24
2023-04-13T03:56:16.826Z,98624.65
2023-04-13T03:58:46.664Z,98628.31
2023-04-13T04:01:15.574Z,98626.48
2023-04-13T04:03:50.109Z,98629.55
2023-04-13T04:06:18.710Z,98628.41
2023-04-13T04:08:53.000Z,98627.20
2023-04-13T04:11:35.333Z,98628.41
2023-04-13T04:14:04.179Z,98631.36
2023-04-13T04:16:35.146Z,98631.31
2023-04-13T04:19:08.906Z,98631.21
2023-04-13T04:21:38.284Z,98634.45
2023-04-13T04:24:12.399Z,98633.92
2023-04-13T04:26:41.657Z,98640.73
2023-04-13T04:29:13.867Z,98640.61
2023-04-13T04:31:45.002Z,98643.09
2023-04-13T04:34:16.905Z,98647.75
2023-04-13T04:36:52.630Z,98654.27
2023-04-13T04:39:23.780Z,98662.47
2023-04-13T04:42:04.125Z,98665.61
2023-04-13T04:44:34.258Z,98664.95
2023-04-13T04:47:06.013Z,98672.29
2023-04-13T04:49:37.891Z,98670.69
2023-04-13T04:52:05.627Z,98671.59
2023-04-13T04:54:34.016Z,98665.11
2023-04-13T04:57:02.403Z,98664.01
2023-04-13T04:59:32.834Z,98659.02
2023-04-13T05:02:03.906Z,98657.45
2023-04-13T05:04:33.586Z,98649.85
2023-04-13T05:07:02.704Z,98651.19
2023-04-13T05:09:34.173Z,98651.24
2023-04-13T05:12:02.171Z,98658.59
2023-04-13T05:14:31.394Z,98652.29
2023-04-13T05:17:00.793Z,98646.05
2023-04-13T05:19:32.571Z,98639.89
2023-04-13T05:22:11.912Z,98641.14
2023-04-13T05:24:46.925Z,98647.49
2023-04-13T05:27:16.078Z,98649.24
2023-04-13T05:29:47.907Z,98651.69
2023-04-13T05:32:18.397Z,98651.38
2023-04-13T05:34:46.920Z,98651.43
2023-04-13T05:37:21.548Z,98654.89
2023-04-13T05:39:50.139Z,98661.61
2023-04-13T05:42:20.005Z,98664.64
2023-04-13T05:44:47.867Z,98665.52
2023-04-13T05:47:18.999Z,98665.98
2023-04-13T05:49:47.440Z,98659.42
2023-04-13T05:52:16.307Z,98660.39
2023-04-13T05:54:46.394Z,98661.17
2023-04-13T05:57:17.004Z,98663.47
2023-04-13T05:59:47.413Z,98666.87
2023-04-13T06:02:20.880Z,98668.41
2023-04-13T06:04:53.826Z,98669.02
2023-04-13T06:07:22.691Z,98669.59
2023-04-13T06:09:50.965Z,98671.16
2023-04-13T06:12:21.874Z,98673.88
2023-04-13T06:14:50.313Z,98675.75
2023-04-13T06:17:18.421Z,98677.52
2023-04-13T06:19:46.678Z,98677.15
2023-04-13T06:22:14.529Z,98675.27
2023-04-13T06:24:42.634Z,98675.95
2023-04-13T06:27:11.492Z,98675.16
2023-04-13T06:29:41.620Z,98675.52
2023-04-13T06:32:10.841Z,98677.48
2023-04-13T06:34:38.797Z,98679.89
2023-04-13T06:37:08.011Z,98680.63
2023-04-13T06:39:44.429Z,98687.34
2023-04-13T06:42:13.724Z,98686.04
2023-04-13T06:45:01.693Z,98685.40
2023-04-13T06:47:34.756Z,98690.00
2023-04-13T06:50:04.030Z,98698.00
2023-04-13T06:52:33.645Z,98701.58
2023-04-13T06:55:04.412Z,98698.23
2023-04-13T06:57:35.528Z,98703.22
2023-04-13T07:00:15.459Z,98699.11
2023-04-13T07:02:53.713Z,98704.45
2023-04-13T07:05:22.329Z,98708.89
2023-04-13T07:07:51.730Z,98712.20
2023-04-13T07:10:20.620Z,98706.92
2023-04-13T07:12:48.596Z,98703.27
2023-04-13T07:15:19.025Z,98701.61
2023-04-13T07:17:46.905Z,98703.21
2023-04-13T07:20:17.605Z,98705.69
2023-04-13T07:22:47.915Z,98703.64
2023-04-13T07:25:16.183Z,98706.44
2023-04-13T07:27:45.115Z,98713.92
2023-04-13T07:30:14.030Z,98718.88
2023-04-13T07:32:45.535Z,98714.21
2023-04-13T07:35:13.447Z,98711.30
2023-04-13T07:37:42.507Z,98704.48
2023-04-13T07:40:11.838Z,98701.14
2023-04-13T07:42:41.363Z,98698.30
2023-04-13T07:45:11.094Z,98700.44
2023-04-13T07:47:39.452Z,98695.89
2023-04-13T07:50:09.716Z,98694.25
2023-04-13T07:52:37.843Z,98697.36
2023-04-13T07:55:07.070Z,98703.66
2023-04-13T07:57:39.048Z,98707.23
2023-04-13T08:00:08.348Z,98712.88
2023-04-13T08:02:42.405Z,98715.93
2023-04-13T08:05:14.417Z,98721.88
2023-04-13T08:07:46.692Z,98722.15
2023-04-13T08:10:16.539Z,98722.77
2023-04-13T08:12:45.045Z,98722.19
2023-04-13T08:15:19.838Z,98729.06
2023-04-13T08:17:49.262Z,98732.27
2023-04-13T08:20:18.666Z,98736.80
2023-04-13T08:22:47.632Z,98741.71
2023-04-13T08:25:15.624Z,98738.98
2023-04-13T08:27:44.251Z,98739.81
2023-04-13T08:30:14.587Z,98741.63
2023-04-13T08:32:58.282Z,98736.67
2023-04-13T08:35:26.721Z,98733.31
2023-04-13T08:37:54.636Z,98734.42
2023-04-13T08:40:23.108Z,98729.47
2023-04-13T08:42:52.078Z,98733.89
2023-04-13T08:45:19.984Z,98732.19
2023-04-13T08:47:50.678Z,98738.46
2023-04-13T08:50:20.663Z,98738.30
2023-04-13T08:52:54.201Z,98742.13
2023-04-13T08:55:23.466Z,98743.07
2023-04-13T08:57:52.058Z,98737.67
2023-04-13T09:00:22.961Z,98741.87
2023-04-13T09:03:04.871Z,98738.32
2023-04-13T09:05:39.032Z,98730.30
2023-04-13T09:08:08.359Z,98731.27
2023-04-13T09:10:41.243Z,98727.89
2023-04-13T09:13:11.255Z,98729.83
2023-04-13T09:15:41.084Z,98731.11
2023-04-13T09:18:30.088Z,98730.99
2023-04-13T09:21:08.276Z,98732.03
2023-04-13T09:23:38.229Z,98730.26
2023-04-13T09:26:09.859Z,98733.04
2023-04-13T09:28:46.873Z,98731.15
2023-04-13T09:31:15.718Z,98733.66
2023-04-13T09:33:47.318Z,98739.02
2023-04-13T09:36:17.769Z,98738.80
2023-04-13T09:38:53.488Z,98738.16
2023-04-13T09:41:37.437Z,98733.41
2023-04-13T09:44:17.066Z,98734.21
2023-04-13T09:46:46.056Z,98736.85
2023-04-13T09:49:13.984Z,98736.24
2023-04-13T09:51:44.056Z,98737.48
2023-04-13T09:54:12.037Z,98736.73
2023-04-13T09:56:45.414Z,98737.91
2023-04-13T09:59:18.486Z,98743.10
2023-04-13T10:01:46.837Z,98742.72
2023-04-13T10:04:14.943Z,98741.36
2023-04-13T10:06:46.685Z,98745.64
2023-04-13T10:09:15.488Z,98745.54
2023-04-13T10:11:49.877Z,98744.61
2023-04-13T10:14:25.237Z,98748.31
2023-04-13T10:17:13.843Z,98746.56
2023-04-13T10:19:46.434Z,98745.84
2023-04-13T10:22:14.672Z,98749.58
2023-04-13T10:24:46.808Z,98753.71
2023-04-13T10:27:15.693Z,98757.96
2023-04-13T10:29:43.428Z,98759.88
2023-04-13T10:32:21.484Z,98755.81
2023-04-13T10:34:49.272Z,98761.39
2023-04-13T10:37:19.500Z,98764.42
2023-04-13T10:39:48.345Z,98764.88
2023-04-13T10:42:17.903Z,98766.36
2023-04-13T10:44:51.136Z,98765.39
2023-04-13T10:47:22.142Z,98766.52
2023-04-13T10:49:50.699Z,98764.34
2023-04-13T10:52:18.805Z,98762.15
2023-04-13T10:54:47.268Z,98765.95
2023-04-13T10:57:21.204Z,98769.63
2023-04-13T10:59:59.196Z,98774.84
2023-04-13T11:02:31.835Z,98776.73
2023-04-13T11:05:01.310Z,98778.19
2023-04-13T11:07:29.843Z,98779.01
2023-04-13T11:10:03.973Z,98782.58
2023-04-13T11:12:32.834Z,98786.86
2023-04-13T11:15:03.845Z,98790.36
2023-04-13T11:17:33.246Z,98793.29
2023-04-13T11:20:02.271Z,98797.45
2023-04-13T11:22:35.630Z,98799.18
2023-04-13T11:25:07.322Z,98798.92
2023-04-13T11:27:35.358Z,98798.16
2023-04-13T11:30:07.553Z,98798.39
2023-04-13T11:32:38.948Z,98798.86
2023-04-13T11:35:10.279Z,98798.15
2023-04-13T11:37:39.488Z,98799.16
2023-04-13T11:40:14.521Z,98799.34
2023-04-13T11:42:42.998Z,98796.25
2023-04-13T11:45:11.855Z,98794.74
2023-04-13T11:47:39.744Z,98793.23
2023-04-13T11:50:11.245Z,98792.00
2023-04-13T11:52:39.482Z,98792.26
2023-04-13T11:55:19.504Z,98795.48
2023-04-13T11:57:50.392Z,98798.41
2023-04-13T12:00:24.669Z,98799.55
2023-04-13T12:05:26.179Z,98800.41
2023-04-13T12:07:55.104Z,98800.23
2023-04-13T12:10:38.242Z,98800.16
2023-04-13T12:16:05.406Z,98795.54
2023-04-13T12:18:43.700Z,98797.33
2023-04-13T12:21:16.365Z,98797.79
2023-04-13T12:23:52.825Z,98799.56
2023-04-13T12:26:59.321Z,98802.33
2023-04-13T12:29:09.183Z,98803.96
2023-04-13T12:31:40.086Z,98809.39
2023-04-13T12:34:08.361Z,98812.83
2023-04-13T12:36:36.963Z,98813.78
2023-04-13T12:39:05.009Z,98815.16
2023-04-13T12:41:33.211Z,98813.92
2023-04-13T12:44:01.393Z,98812.09
2023-04-13T12:46:29.721Z,98812.48
2023-04-13T12:48:58.203Z,98810.44
2023-04-13T12:51:26.734Z,98816.11
2023-04-13T12:53:54.997Z,98822.03
2023-04-13T12:56:24.532Z,98823.05
2023-04-13T12:58:52.600Z,98818.95
2023-04-13T13:01:21.913Z,98817.55
2023-04-13T13:03:51.615Z,98815.75
2023-04-13T13:06:19.678Z,98816.36
2023-04-13T13:08:47.551Z,98818.95
2023-04-13T13:11:15.670Z,98823.27
2023-04-13T13:13:44.600Z,98823.84
2023-04-13T13:16:14.231Z,98825.84
2023-04-13T13:18:51.229Z,98824.43
2023-04-13T13:21:29.429Z,98829.58
2023-04-13T13:23:57.248Z,98829.29
2023-04-13T13:26:28.903Z,98828.81
2023-04-13T13:29:04.109Z,98828.84
2023-04-13T13:31:32.130Z,98829.70
2023-04-13T13:34:00.174Z,98827.19
2023-04-13T13:36:30.608Z,98834.52
2023-04-13T13:39:05.338Z,98835.08
2023-04-13T13:41:33.447Z,98833.48
2023-04-13T13:44:01.235Z,98836.19
2023-04-13T13:46:30.060Z,98838.85
2023-04-13T13:48:58.660Z,98837.30
2023-04-13T13:51:37.782Z,98841.81
2023-04-13T13:54:07.022Z,98844.39
2023-04-13T13:56:34.882Z,98845.96
2023-04-13T13:59:04.777Z,98846.13
2023-04-13T14:01:32.978Z,98848.80
2023-04-13T14:04:02.086Z,98846.45
2023-04-13T14:06:32.851Z,98843.06
2023-04-13T14:09:01.538Z,98845.10
2023-04-13T14:11:29.959Z,98843.45
2023-04-13T14:14:01.587Z,98839.41
2023-04-13T14:16:36.366Z,98847.30
2023-04-13T14:19:04.591Z,98847.58
2023-04-13T14:21:33.527Z,98849.51
2023-04-13T14:24:05.163Z,98856.55
2023-04-13T14:26:36.415Z,98858.27
2023-04-13T14:29:04.686Z,98862.18
2023-04-13T14:31:37.100Z,98861.94
2023-04-13T14:34:05.600Z,98862.61
2023-04-13T14:36:33.626Z,98862.77
2023-04-13T14:39:02.157Z,98867.23
2023-04-13T14:41:30.971Z,98867.80
2023-04-13T14:43:58.943Z,98872.04
2023-04-13T14:46:32.614Z,98871.34
2023-04-13T14:49:01.541Z,98870.80
2023-04-13T14:51:31.857Z,98874.15
2023-04-13T14:54:01.001Z,98878.56
2023-04-13T14:56:29.956Z,98880.90
2023-04-13T14:58:58.105Z,98881.64
2023-04-13T15:01:26.488Z,98882.64
2023-04-13T15:03:56.104Z,98885.71
2023-04-13T15:06:25.392Z,98886.39
2023-04-13T15:08:54.292Z,98890.40
2023-04-13T15:11:27.633Z,98888.89
2023-04-13T15:13:55.418Z,98893.41
2023-04-13T15:16:23.718Z,98896.84
2023-04-13T15:18:51.709Z,98899.30
2023-04-13T15:21:20.805Z,98901.83
2023-04-13T15:23:49.015Z,98901.50
2023-04-13T15:26:18.320Z,98901.98
2023-04-13T15:28:48.666Z,98901.02
2023-04-13T15:31:16.528Z,98904.23
2023-04-13T15:33:44.331Z,98908.28
2023-04-13T15:36:13.071Z,98908.09
2023-04-13T15:38:41.472Z,98910.62
2023-04-13T15:41:10.199Z,98915.51
2023-04-13T15:43:41.164Z,98914.17
2023-04-13T15:46:09.172Z,98915.39
2023-04-13T15:48:38.454Z,98916.45
2023-04-13T15:51:06.581Z,98917.52
2023-04-13T15:53:35.253Z,98918.95
2023-04-13T15:56:03.686Z,98924.73
2023-04-13T15:58:31.674Z,98923.45
2023-04-13T16:01:06.224Z,98924.36
2023-04-13T16:03:35.771Z,98925.71
2023-04-13T16:06:04.087Z,98929.23
2023-04-13T16:08:32.620Z,98930.27
2023-04-13T16:11:01.562Z,98932.70
2023-04-13T16:13:47.257Z,98930.84
2023-04-13T16:16:23.823Z,98934.83
2023-04-13T16:18:58.948Z,98938.33
2023-04-13T16:21:28.346Z,98939.36
2023-04-13T16:23:57.180Z,98941.73
2023-04-13T16:26:25.014Z,98942.80
2023-04-13T16:28:53.573Z,98941.84
2023-04-13T16:31:21.476Z,98941.04
2023-04-13T16:33:49.760Z,98941.33
2023-04-13T16:36:17.671Z,98949.11
2023-04-13T16:38:46.023Z,98951.04
2023-04-13T16:41:14.086Z,98951.55
2023-04-13T16:43:42.123Z,98949.27
2023-04-13T16:46:12.176Z,98948.54
2023-04-13T16:48:41.145Z,98952.83
2023-04-13T16:51:09.239Z,98956.23
2023-04-13T16:53:44.112Z,98957.06
2023-04-13T16:56:11.928Z,98962.02
2023-04-13T16:58:40.055Z,98960.60
2023-04-13T17:01:12.485Z,98964.22
2023-04-13T17:03:41.623Z,98969.30
2023-04-13T17:06:09.526Z,98972.51
2023-04-13T17:08:38.440Z,98972.65
2023-04-13T17:11:07.240Z,98976.63
2023-04-13T17:13:36.611Z,98980.02
2023-04-13T17:16:07.911Z,98984.97
2023-04-13T17:18:38.250Z,98987.84
2023-04-13T17:21:06.597Z,98988.89
2023-04-13T17:23:34.666Z,98990.18
2023-04-13T17:26:07.990Z,98995.13
2023-04-13T17:28:36.107Z,98997.00
2023-04-13T17:31:03.897Z,98998.13
2023-04-13T17:33:32.426Z,98999.98
2023-04-13T17:36:00.431Z,98999.29
2023-04-13T17:38:28.411Z,99001.46
2023-04-13T17:40:56.398Z,99003.94
2023-04-13T17:43:24.278Z,99006.10
2023-04-13T17:45:52.253Z,99007.91
2023-04-13T17:48:23.945Z,99012.67
2023-04-13T17:50:51.681Z,99007.88
2023-04-13T17:53:19.617Z,99011.29
2023-04-13T17:55:53.141Z,99013.45
2023-04-13T17:58:22.156Z,99018.17
2023-04-13T18:00:51.495Z,99015.38
2023-04-13T18:03:39.644Z,99020.80
2023-04-13T18:06:09.040Z,99025.08
2023-04-13T18:08:37.408Z,99023.17
2023-04-13T18:11:09.886Z,99029.16
2023-04-13T18:13:39.894Z,99032.73
2023-04-13T18:16:11.734Z,99031.45
2023-04-13T18:18:41.333Z,99034.64
2023-04-13T18:21:19.672Z,99038.46
2023-04-13T18:23:48.090Z,99038.57
2023-04-13T18:26:16.428Z,99039.74
2023-04-13T18:28:44.905Z,99038.65
2023-04-13T18:31:13.632Z,99038.60
2023-04-13T18:33:42.153Z,99041.37
2023-04-13T18:36:09.991Z,99040.71
2023-04-13T18:38:42.865Z,99037.96
2023-04-13T18:41:11.044Z,99035.91
2023-04-13T18:43:39.719Z,99038.70
2023-04-13T18:46:08.152Z,99040.38
2023-04-13T18:48:36.618Z,99035.90
2023-04-13T18:51:09.903Z,99036.05
2023-04-13T18:53:38.772Z,99036.84
2023-04-13T18:56:06.632Z,99036.74
2023-04-13T18:58:35.537Z,99038.65
2023-04-13T19:01:03.438Z,99037.14
2023-04-13T19:03:32.724Z,99038.58
2023-04-13T19:06:01.282Z,99039.21
2023-04-13T19:08:33.613Z,99042.17
2023-04-13T19:11:01.827Z,99040.42
2023-04-13T19:13:30.033Z,99041.06
2023-04-13T19:16:04.545Z,99039.98
2023-04-13T19:18:36.319Z,99042.95
2023-04-13T19:21:06.569Z,99041.55
2023-04-13T19:23:38.929Z,99039.10
2023-04-13T19:26:08.383Z,99041.21
2023-04-13T19:28:37.558Z,99045.85
2023-04-13T19:31:05.904Z,99046.42
2023-04-13T19:33:42.548Z,99047.61
2023-04-13T19:36:10.445Z,99050.36
2023-04-13T19:38:38.260Z,99051.21
2023-04-13T19:41:06.215Z,99051.30
2023-04-13T19:43:34.850Z,99051.89
2023-04-13T19:46:02.701Z,99051.65
2023-04-13T19:48:32.240Z,99050.31
2023-04-13T19:51:00.466Z,99054.67
2023-04-13T19:53:32.632Z,99055.75
2023-04-13T19:56:01.429Z,99053.64
2023-04-13T19:58:29.631Z,99054.23
2023-04-13T20:00:59.410Z,99055.25
2023-04-13T20:03:29.070Z,99054.38
2023-04-13T20:06:02.829Z,99055.95
2023-04-13T20:08:31.416Z,99061.73
2023-04-13T20:10:59.932Z,99063.08
2023-04-13T20:13:30.599Z,99065.64
2023-04-13T20:15:59.031Z,99059.91
2023-04-13T20:18:26.898Z,99067.94
2023-04-13T20:20:55.503Z,99065.43
2023-04-13T20:23:23.816Z,99065.96
2023-04-13T20:25:52.943Z,99066.94
2023-04-13T20:28:21.492Z,99062.58
2023-04-13T20:30:49.639Z,99059.86
2023-04-13T20:33:19.084Z,99056.16
2023-04-13T20:35:47.009Z,99052.01
2023-04-13T20:38:15.017Z,99052.79
2023-04-13T20:40:45.814Z,99055.89
2023-04-13T20:43:15.679Z,99057.64
2023-04-13T20:45:45.533Z,99063.47
2023-04-13T20:50:47.919Z,99055.79
2023-04-13T20:53:17.413Z,99056.29
2023-04-13T20:55:45.743Z,99056.02
2023-04-13T20:58:13.681Z,99060.45
2023-04-13T21:00:43.615Z,99058.36
2023-04-13T21:03:13.114Z,99057.57
2023-04-13T21:05:41.317Z,99054.06
2023-04-13T21:08:09.040Z,99062.55
2023-04-13T21:10:38.297Z,99060.66
2023-04-13T21:13:10.467Z,99063.98
2023-04-13T21:15:38.437Z,99065.64
2023-04-13T21:18:07.110Z,99069.02
2023-04-13T21:20:35.366Z,99073.70
2023-04-13T21:23:03.561Z,99070.17
2023-04-13T21:25:31.765Z,99071.84
2023-04-13T21:28:00.186Z,99071.94
2023-04-13T21:30:28.253Z,99071.39
2023-04-13T21:32:57.229Z,99069.05
2023-04-13T21:35:25.180Z,99065.02
2023-04-13T21:37:53.016Z,99066.38
2023-04-13T21:40:24.261Z,99067.45
2023-04-13T21:42:52.292Z,99066.92
2023-04-13T21:45:20.755Z,99067.27
2023-04-13T21:47:48.688Z,99070.91
2023-04-13T21:50:16.632Z,99066.93
2023-04-13T21:52:44.392Z,99065.73
2023-04-13T21:55:17.842Z,99071.51
2023-04-13T21:57:46.134Z,99071.10
2023-04-13T22:00:14.838Z,99071.27
2023-04-13T22:02:43.361Z,99065.52
2023-04-13T22:05:11.502Z,99065.14
2023-04-13T22:07:47.291Z,99060.64
2023-04-13T22:10:15.056Z,99060.35
2023-04-13T22:12:43.467Z,99061.34
2023-04-13T22:15:15.048Z,99055.29
2023-04-13T22:17:43.272Z,99055.77
2023-04-13T22:20:11.644Z,99058.27
2023-04-13T22:22:39.598Z,99060.52
2023-04-13T22:25:07.870Z,99062.67
2023-04-13T22:27:38.764Z,99062.90
2023-04-13T22:30:07.457Z,99062.81
2023-04-13T22:32:37.153Z,99064.66
2023-04-13T22:35:06.135Z,99066.05
2023-04-13T22:37:35.512Z,99065.20
2023-04-13T22:40:03.752Z,99062.66
2023-04-13T22:42:32.121Z,99061.61
2023-04-13T22:45:01.002Z,99065.61
2023-04-13T22:47:29.598Z,99065.93
2023-04-13T22:50:00.781Z,99068.45
2023-04-13T22:52:32.169Z,99066.73
2023-04-13T22:55:00.881Z,99068.58
2023-04-13T22:57:28.897Z,99070.56
2023-04-13T22:59:57.156Z,99069.85
2023-04-13T23:02:25.150Z,99069.17
2023-04-13T23:04:53.318Z,99073.42
2023-04-13T23:07:21.556Z,99073.11
2023-04-13T23:09:51.138Z,99080.91
2023-04-13T23:12:19.197Z,99083.18
2023-04-13T23:14:47.068Z,99090.47
2023-04-13T23:17:16.582Z,99093.14
2023-04-13T23:19:44.773Z,99085.27
2023-04-13T23:22:12.712Z,99084.90
2023-04-13T23:24:41.146Z,99084.42
2023-04-13T23:27:08.998Z,99083.58
2023-04-13T23:29:36.939Z,99085.91
2023-04-13T23:32:06.888Z,99087.75
2023-04-13T23:34:35.789Z,99086.59
2023-04-13T23:37:03.744Z,99087.62
2023-04-13T23:39:32.738Z,99089.25
2023-04-13T23:42:00.779Z,99089.61
2023-04-13T23:44:28.985Z,99094.42
2023-04-13T23:46:57.168Z,99097.00
2023-04-13T23:49:24.941Z,99098.22
2023-04-13T23:51:56.449Z,99098.20
2023-04-13T23:54:24.188Z,99099.83
2023-04-13T23:56:51.943Z,99100.93
2023-04-13T23:59:19.860Z,99100.70
